Terminal Aerodrome Forecast
Issued by NWS

Home | Current Version | Previous Version | Text Only | Print | Product List | Glossary On
Versions: 1 2 3 4 5 6 7 8 9 10 11 12 13 14 15 16 17 18
000
FTUS43 KDLH 240012 AAA
TAFHYR
TAF AMD
KHYR 240012Z 2400/2424 VRB05KT P6SM VCSH FEW035 BKN060 OVC080
      TEMPO 2400/2401 3SM -RA
     FM240400 30004KT P6SM BKN080
     FM241000 VRB03KT P6SM OVC025
     FM241500 29007KT P6SM OVC020
     FM241800 28008KT P6SM BKN035=

USA.gov is the U.S. government's official web portal to all federal, state and local government web resources and services.